createdAt,value
2023-05-20T00:01:33.100Z,1.83
2023-05-20T00:03:59.822Z,2.43
2023-05-20T00:06:26.405Z,2.17
2023-05-20T00:08:52.937Z,4.27
2023-05-20T00:11:19.457Z,2.20
2023-05-20T00:13:45.871Z,1.93
2023-05-20T00:16:12.364Z,4.37
2023-05-20T00:18:38.869Z,2.00
2023-05-20T00:21:05.329Z,2.90
2023-05-20T00:23:31.802Z,2.37
2023-05-20T00:26:00.554Z,1.57
2023-05-20T00:28:27.388Z,1.90
2023-05-20T00:30:54.850Z,1.80
2023-05-20T00:33:21.413Z,2.17
2023-05-20T00:35:47.961Z,1.60
2023-05-20T00:38:14.494Z,3.60
2023-05-20T00:40:40.986Z,2.00
2023-05-20T00:43:07.421Z,2.27
2023-05-20T00:45:34.169Z,2.13
2023-05-20T00:48:03.991Z,2.40
2023-05-20T00:50:31.779Z,4.17
2023-05-20T00:52:58.777Z,3.53
2023-05-20T00:55:25.821Z,4.27
2023-05-20T00:57:53.227Z,3.10
2023-05-20T01:00:19.788Z,3.20
2023-05-20T01:02:46.527Z,2.30
2023-05-20T01:05:13.095Z,1.60
2023-05-20T01:07:39.754Z,2.83
2023-05-20T01:10:07.264Z,2.20
2023-05-20T01:12:43.996Z,1.23
2023-05-20T01:15:12.772Z,4.87
2023-05-20T01:17:51.776Z,2.07
2023-05-20T01:20:20.632Z,1.87
2023-05-20T01:22:48.017Z,2.03
2023-05-20T01:25:14.734Z,1.80
2023-05-20T01:27:41.402Z,2.13
2023-05-20T01:30:08.720Z,2.10
2023-05-20T01:32:40.524Z,2.37
2023-05-20T01:35:08.186Z,1.70
2023-05-20T01:37:38.791Z,2.27
2023-05-20T01:40:08.112Z,1.97
2023-05-20T01:42:36.073Z,2.13
2023-05-20T01:45:03.749Z,1.70
2023-05-20T01:47:31.270Z,1.73
2023-05-20T01:49:57.769Z,2.70
2023-05-20T01:52:24.218Z,1.80
2023-05-20T01:54:53.685Z,2.20
2023-05-20T01:57:21.570Z,2.40
2023-05-20T01:59:48.073Z,1.73
2023-05-20T02:02:15.075Z,1.87
2023-05-20T02:04:45.966Z,1.83
2023-05-20T02:07:12.349Z,2.03
2023-05-20T02:09:38.806Z,1.67
2023-05-20T02:12:05.609Z,1.30
2023-05-20T02:14:32.018Z,1.73
2023-05-20T02:16:58.489Z,1.80
2023-05-20T02:19:24.954Z,1.70
2023-05-20T02:21:51.552Z,2.60
2023-05-20T02:24:18.121Z,2.00
2023-05-20T02:26:46.772Z,2.27
2023-05-20T02:29:13.181Z,2.57
2023-05-20T02:31:39.629Z,1.97
2023-05-20T02:34:06.197Z,1.70
2023-05-20T02:36:32.752Z,1.67
2023-05-20T02:39:01.086Z,3.90
2023-05-20T02:41:27.600Z,2.70
2023-05-20T02:43:54.271Z,1.57
2023-05-20T02:46:20.985Z,1.40
2023-05-20T02:48:47.471Z,1.77
2023-05-20T02:51:14.052Z,1.77
2023-05-20T02:53:40.732Z,1.80
2023-05-20T02:56:08.656Z,1.80
2023-05-20T02:58:35.648Z,5.43
2023-05-20T03:01:02.595Z,2.00
2023-05-20T03:03:29.528Z,1.47
2023-05-20T03:05:56.363Z,1.87
2023-05-20T03:08:23.576Z,2.17
2023-05-20T03:10:50.741Z,1.10
2023-05-20T03:13:17.343Z,1.37
2023-05-20T03:15:47.183Z,1.50
2023-05-20T03:18:13.833Z,1.70
2023-05-20T03:20:41.480Z,1.83
2023-05-20T03:23:08.730Z,2.07
2023-05-20T03:25:36.470Z,3.23
2023-05-20T03:28:03.925Z,2.40
2023-05-20T03:30:30.575Z,2.40
2023-05-20T03:32:57.913Z,2.30
2023-05-20T03:35:25.204Z,1.93
2023-05-20T03:37:53.224Z,1.63
2023-05-20T03:40:21.138Z,1.10
2023-05-20T03:42:47.622Z,2.27
2023-05-20T03:45:14.055Z,1.70
2023-05-20T03:47:40.675Z,1.70
2023-05-20T03:50:07.841Z,2.13
2023-05-20T03:52:34.699Z,1.90
2023-05-20T03:55:01.586Z,1.73
2023-05-20T03:57:29.440Z,1.53
2023-05-20T03:59:56.913Z,1.90
2023-05-20T04:02:23.513Z,1.57
2023-05-20T04:04:52.960Z,1.33
2023-05-20T04:07:19.646Z,1.63
2023-05-20T04:09:46.746Z,1.70
2023-05-20T04:12:13.867Z,1.87
2023-05-20T04:14:42.143Z,1.57
2023-05-20T04:17:09.704Z,1.60
2023-05-20T04:19:38.277Z,1.50
2023-05-20T04:22:04.938Z,2.70
2023-05-20T04:24:31.429Z,3.13
2023-05-20T04:26:57.994Z,1.80
2023-05-20T04:29:25.829Z,2.07
2023-05-20T04:31:52.396Z,1.60
2023-05-20T04:34:20.351Z,1.73
2023-05-20T04:36:47.127Z,1.63
2023-05-20T04:39:13.983Z,1.43
2023-05-20T04:41:40.494Z,1.93
2023-05-20T04:44:07.237Z,1.57
2023-05-20T04:46:34.043Z,4.20
2023-05-20T04:49:00.638Z,1.37
2023-05-20T04:51:27.199Z,1.53
2023-05-20T04:53:53.742Z,4.87
2023-05-20T04:56:20.802Z,3.07
2023-05-20T04:58:47.227Z,1.50
2023-05-20T05:01:13.711Z,2.00
2023-05-20T05:03:40.295Z,1.60
2023-05-20T05:06:06.718Z,1.87
2023-05-20T05:08:33.121Z,1.43
2023-05-20T05:10:59.568Z,1.77
2023-05-20T05:13:26.074Z,2.40
2023-05-20T05:16:02.901Z,1.83
2023-05-20T05:18:29.594Z,2.33
2023-05-20T05:21:03.449Z,1.80
2023-05-20T05:23:30.461Z,1.43
2023-05-20T05:25:57.274Z,2.37
2023-05-20T05:28:24.246Z,1.90
2023-05-20T05:30:50.962Z,1.23
2023-05-20T05:33:17.672Z,1.37
2023-05-20T05:35:44.602Z,1.63
2023-05-20T05:38:11.042Z,1.47
2023-05-20T05:40:37.598Z,2.27
2023-05-20T05:43:04.203Z,2.07
2023-05-20T05:45:30.889Z,2.60
2023-05-20T05:47:57.563Z,1.60
2023-05-20T05:50:24.161Z,1.97
2023-05-20T05:52:53.531Z,1.97
2023-05-20T05:55:20.002Z,1.53
2023-05-20T05:57:46.801Z,2.00
2023-05-20T06:00:13.591Z,1.70
2023-05-20T06:02:40.267Z,1.70
2023-05-20T06:05:07.560Z,2.17
2023-05-20T06:07:35.123Z,1.70
2023-05-20T06:10:01.932Z,1.63
2023-05-20T06:12:28.365Z,2.33
2023-05-20T06:14:54.773Z,2.17
2023-05-20T06:17:21.289Z,2.83
2023-05-20T06:19:47.878Z,2.07
2023-05-20T06:22:14.363Z,2.30
2023-05-20T06:24:40.865Z,1.60
2023-05-20T06:27:07.301Z,1.50
2023-05-20T06:29:33.818Z,1.77
2023-05-20T06:32:00.484Z,2.37
2023-05-20T06:34:26.922Z,2.30
2023-05-20T06:36:53.722Z,2.10
2023-05-20T06:39:20.481Z,2.70
2023-05-20T06:41:47.007Z,1.80
2023-05-20T06:44:13.492Z,1.60
2023-05-20T06:46:39.994Z,1.93
2023-05-20T06:49:06.722Z,2.30
2023-05-20T06:51:33.169Z,3.50
2023-05-20T06:53:59.613Z,2.10
2023-05-20T06:56:26.171Z,1.20
2023-05-20T06:58:52.718Z,1.80
2023-05-20T07:01:19.288Z,1.80
2023-05-20T07:03:45.885Z,1.87
2023-05-20T07:06:12.422Z,1.87
2023-05-20T07:08:38.980Z,1.80
2023-05-20T07:11:05.838Z,2.00
2023-05-20T07:13:32.387Z,2.03
2023-05-20T07:15:59.225Z,2.43
2023-05-20T07:18:25.913Z,1.57
2023-05-20T07:20:52.899Z,1.97
2023-05-20T07:23:19.374Z,2.23
2023-05-20T07:25:46.022Z,2.03
2023-05-20T07:28:12.533Z,2.37
2023-05-20T07:30:39.010Z,1.80
2023-05-20T07:33:05.530Z,2.00
2023-05-20T07:35:32.885Z,2.87
2023-05-20T07:37:59.532Z,1.90
2023-05-20T07:40:25.972Z,1.93
2023-05-20T07:42:52.443Z,2.00
2023-05-20T07:45:18.866Z,3.00
2023-05-20T07:47:45.322Z,5.70
2023-05-20T07:50:11.771Z,5.33
2023-05-20T07:52:51.840Z,1.87
2023-05-20T07:55:22.122Z,2.17
2023-05-20T07:57:48.525Z,1.83
2023-05-20T08:00:15.144Z,2.00
2023-05-20T08:02:41.743Z,1.77
2023-05-20T08:05:08.672Z,2.30
2023-05-20T08:07:35.170Z,2.07
2023-05-20T08:10:01.614Z,1.77
2023-05-20T08:12:28.068Z,1.73
2023-05-20T08:14:54.513Z,2.60
2023-05-20T08:17:21.178Z,1.97
2023-05-20T08:19:47.709Z,1.63
2023-05-20T08:22:14.349Z,2.53
2023-05-20T08:24:41.179Z,1.57
2023-05-20T08:27:07.666Z,2.03
2023-05-20T08:29:34.274Z,2.50
2023-05-20T08:32:00.788Z,2.53
2023-05-20T08:34:27.246Z,5.00
2023-05-20T08:36:53.776Z,4.43
2023-05-20T08:39:20.266Z,1.27
2023-05-20T08:41:47.946Z,2.17
2023-05-20T08:44:14.641Z,1.90
2023-05-20T08:46:41.874Z,2.03
2023-05-20T08:49:08.528Z,1.53
2023-05-20T08:51:37.263Z,2.40
2023-05-20T08:54:03.956Z,1.77
2023-05-20T08:56:32.768Z,2.40
2023-05-20T08:58:59.339Z,2.37
2023-05-20T09:01:26.110Z,1.83
2023-05-20T09:03:53.076Z,3.80
2023-05-20T09:06:22.440Z,2.37
2023-05-20T09:08:51.200Z,4.17
2023-05-20T09:11:17.773Z,2.03
2023-05-20T09:13:44.569Z,3.13
2023-05-20T09:16:11.537Z,2.00
2023-05-20T09:18:41.649Z,2.43
2023-05-20T09:21:10.208Z,2.30
2023-05-20T09:23:38.441Z,2.13
2023-05-20T09:26:05.088Z,2.00
2023-05-20T09:28:31.836Z,2.67
2023-05-20T09:31:01.499Z,2.07
2023-05-20T09:33:30.316Z,4.60
2023-05-20T09:36:09.220Z,2.50
2023-05-20T09:38:40.304Z,1.87
2023-05-20T09:41:14.019Z,2.47
2023-05-20T09:43:41.086Z,2.07
2023-05-20T09:46:08.522Z,4.00
2023-05-20T09:48:38.441Z,2.10
2023-05-20T09:51:06.852Z,2.00
2023-05-20T09:53:33.896Z,2.50
2023-05-20T09:56:00.537Z,4.10
2023-05-20T09:58:27.385Z,2.97
2023-05-20T10:00:53.983Z,2.33
2023-05-20T10:03:23.886Z,1.83
2023-05-20T10:06:17.637Z,1.73
2023-05-20T10:09:38.275Z,1.70
2023-05-20T10:12:10.680Z,2.83
2023-05-20T10:15:10.527Z,3.27
2023-05-20T10:17:44.972Z,3.17
2023-05-20T10:20:14.298Z,2.33
2023-05-20T10:22:41.358Z,2.07
2023-05-20T10:25:14.007Z,1.93
2023-05-20T10:27:44.973Z,2.07
2023-05-20T10:30:19.816Z,1.80
2023-05-20T10:33:00.429Z,1.97
2023-05-20T10:35:27.604Z,1.40
2023-05-20T10:38:06.385Z,1.90
2023-05-20T10:40:34.161Z,2.63
2023-05-20T10:43:10.926Z,2.33
2023-05-20T10:45:49.101Z,1.30
2023-05-20T10:48:26.414Z,1.87
2023-05-20T10:51:04.078Z,1.40
2023-05-20T10:53:39.426Z,2.17
2023-05-20T10:56:06.756Z,1.83
2023-05-20T10:58:38.610Z,1.50
2023-05-20T11:01:05.352Z,1.80
2023-05-20T11:03:34.912Z,1.50
2023-05-20T11:06:01.526Z,1.70
2023-05-20T11:08:31.425Z,1.57
2023-05-20T11:10:58.243Z,2.27
2023-05-20T11:13:25.875Z,2.50
2023-05-20T11:15:52.790Z,5.07
2023-05-20T11:18:19.411Z,2.67
2023-05-20T11:20:46.966Z,1.37
2023-05-20T11:23:15.182Z,4.70
2023-05-20T11:25:41.946Z,2.07
2023-05-20T11:28:13.639Z,1.83
2023-05-20T11:30:42.585Z,2.70
2023-05-20T11:33:12.754Z,2.53
2023-05-20T11:35:53.868Z,1.87
2023-05-20T11:38:21.637Z,1.73
2023-05-20T11:40:53.455Z,1.73
2023-05-20T11:43:20.922Z,7.30
2023-05-20T11:45:52.922Z,2.37
2023-05-20T11:48:20.046Z,1.77
2023-05-20T11:50:47.597Z,1.73
2023-05-20T11:53:18.881Z,2.20
2023-05-20T11:55:49.887Z,6.57
2023-05-20T11:58:20.922Z,1.37
2023-05-20T12:00:53.396Z,1.80
2023-05-20T12:03:24.117Z,1.80
2023-05-20T12:05:51.344Z,1.95
2023-05-20T12:08:18.473Z,2.13
2023-05-20T12:10:45.156Z,1.80
2023-05-20T12:13:14.409Z,2.30
2023-05-20T12:15:41.199Z,3.00
2023-05-20T12:18:08.001Z,2.60
2023-05-20T12:20:34.879Z,2.10
2023-05-20T12:23:02.002Z,2.90
2023-05-20T12:25:29.107Z,2.30
2023-05-20T12:28:04.442Z,3.13
2023-05-20T12:30:31.104Z,1.33
2023-05-20T12:32:57.721Z,1.43
2023-05-20T12:35:39.277Z,2.13
2023-05-20T12:38:06.788Z,1.57
2023-05-20T12:40:34.288Z,2.07
2023-05-20T12:43:02.437Z,1.83
2023-05-20T12:45:29.071Z,1.73
2023-05-20T12:47:56.874Z,2.07
2023-05-20T12:50:24.663Z,3.97
2023-05-20T12:52:51.404Z,1.37
2023-05-20T12:55:18.201Z,1.30
2023-05-20T12:57:46.319Z,1.93
2023-05-20T13:00:13.807Z,1.90
2023-05-20T13:02:42.360Z,2.10
2023-05-20T13:05:10.511Z,1.77
2023-05-20T13:07:37.421Z,1.77
2023-05-20T13:10:04.321Z,1.30
2023-05-20T13:12:30.930Z,1.60
2023-05-20T13:14:57.550Z,1.57
2023-05-20T13:17:24.195Z,1.83
2023-05-20T13:19:51.318Z,1.93
2023-05-20T13:22:17.774Z,1.37
2023-05-20T13:24:44.286Z,1.40
2023-05-20T13:27:10.972Z,2.00
2023-05-20T13:29:37.667Z,2.80
2023-05-20T13:32:04.514Z,1.43
2023-05-20T13:34:33.177Z,4.13
2023-05-20T13:36:59.641Z,4.10
2023-05-20T13:39:26.143Z,1.60
2023-05-20T13:41:54.926Z,1.73
2023-05-20T13:44:21.443Z,1.67
2023-05-20T13:46:48.109Z,4.28
2023-05-20T13:49:14.686Z,1.97
2023-05-20T13:51:41.239Z,3.97
2023-05-20T13:54:07.705Z,1.73
2023-05-20T13:56:34.469Z,3.67
2023-05-20T13:59:01.177Z,1.55
2023-05-20T14:01:30.253Z,1.30
2023-05-20T14:03:57.027Z,29.73
2023-05-20T14:06:23.654Z,14.40
2023-05-20T14:08:59.065Z,11.33
2023-05-20T14:11:25.628Z,4.83
2023-05-20T14:13:52.270Z,1.30
2023-05-20T14:16:18.800Z,1.87
2023-05-20T14:18:45.715Z,2.57
2023-05-20T14:21:12.209Z,1.60
2023-05-20T14:23:41.074Z,1.43
2023-05-20T14:26:07.623Z,1.40
2023-05-20T14:28:34.060Z,1.40
2023-05-20T14:31:00.584Z,1.60
2023-05-20T14:33:27.062Z,1.37
2023-05-20T14:35:53.573Z,1.50
2023-05-20T14:38:21.509Z,1.47
2023-05-20T14:40:48.132Z,1.10
2023-05-20T14:43:15.282Z,1.33
2023-05-20T14:45:41.820Z,84.53
2023-05-20T14:48:08.443Z,92.07
2023-05-20T14:50:35.160Z,66.45
2023-05-20T14:53:02.750Z,15.00
2023-05-20T14:55:29.260Z,2.08
2023-05-20T14:57:55.888Z,3.03
2023-05-20T15:00:22.452Z,3.80
2023-05-20T15:02:49.166Z,4.30
2023-05-20T15:05:15.840Z,2.63
2023-05-20T15:07:42.268Z,1.60
2023-05-20T15:10:09.045Z,1.57
2023-05-20T15:12:35.483Z,1.70
2023-05-20T15:15:02.013Z,1.63
2023-05-20T15:17:29.529Z,1.70
2023-05-20T15:19:56.297Z,4.53
2023-05-20T15:22:22.919Z,5.57
2023-05-20T15:24:49.468Z,2.27
2023-05-20T15:27:15.962Z,1.87
2023-05-20T15:29:42.607Z,1.70
2023-05-20T15:32:09.284Z,1.40
2023-05-20T15:34:36.129Z,1.80
2023-05-20T15:37:02.949Z,2.00
2023-05-20T15:39:29.412Z,2.17
2023-05-20T15:41:56.173Z,1.67
2023-05-20T15:44:22.659Z,3.30
2023-05-20T15:46:49.165Z,1.63
2023-05-20T15:49:15.634Z,3.30
2023-05-20T15:51:46.644Z,1.90
2023-05-20T15:54:22.153Z,1.77
2023-05-20T15:56:48.577Z,1.90
2023-05-20T15:59:15.008Z,1.90
2023-05-20T16:01:41.476Z,1.67
2023-05-20T16:04:07.962Z,2.57
2023-05-20T16:06:35.769Z,2.43
2023-05-20T16:09:02.671Z,1.63
2023-05-20T16:11:31.710Z,1.60
2023-05-20T16:13:59.415Z,1.53
2023-05-20T16:16:26.293Z,1.53
2023-05-20T16:18:53.086Z,1.70
2023-05-20T16:21:20.527Z,1.98
2023-05-20T16:23:47.245Z,2.83
2023-05-20T16:26:14.277Z,1.20
2023-05-20T16:28:41.014Z,1.47
2023-05-20T16:31:07.562Z,1.53
2023-05-20T16:33:33.984Z,1.73
2023-05-20T16:36:01.448Z,1.27
2023-05-20T16:38:27.990Z,1.67
2023-05-20T16:40:54.512Z,1.80
2023-05-20T16:43:21.131Z,1.77
2023-05-20T16:45:47.654Z,1.40
2023-05-20T16:48:14.275Z,3.47
2023-05-20T16:50:41.119Z,1.67
2023-05-20T16:53:07.666Z,2.20
2023-05-20T16:55:34.102Z,2.00
2023-05-20T16:58:00.821Z,2.77
2023-05-20T17:00:27.238Z,2.87
2023-05-20T17:02:53.796Z,2.90
2023-05-20T17:05:20.446Z,2.63
2023-05-20T17:07:48.896Z,5.60
2023-05-20T17:10:15.704Z,2.30
2023-05-20T17:12:42.300Z,1.97
2023-05-20T17:15:09.014Z,2.83
2023-05-20T17:17:35.631Z,3.90
2023-05-20T17:20:02.281Z,2.00
2023-05-20T17:22:28.677Z,2.00
2023-05-20T17:24:56.237Z,3.43
2023-05-20T17:27:22.658Z,3.40
2023-05-20T17:29:49.138Z,2.00
2023-05-20T17:32:15.620Z,2.50
2023-05-20T17:34:42.097Z,2.73
2023-05-20T17:37:08.583Z,2.80
2023-05-20T17:39:35.019Z,3.50
2023-05-20T17:42:01.665Z,2.97
2023-05-20T17:44:28.253Z,2.47
2023-05-20T17:46:54.666Z,2.50
2023-05-20T17:49:21.459Z,3.37
2023-05-20T17:51:48.046Z,3.10
2023-05-20T17:54:15.137Z,2.73
2023-05-20T17:56:44.269Z,2.23
2023-05-20T17:59:10.969Z,5.13
2023-05-20T18:01:38.655Z,2.60
2023-05-20T18:04:06.244Z,3.80
2023-05-20T18:06:34.635Z,2.53
2023-05-20T18:09:01.853Z,2.03
2023-05-20T18:11:28.590Z,2.70
2023-05-20T18:13:58.652Z,2.03
2023-05-20T18:16:26.966Z,2.37
2023-05-20T18:18:54.088Z,3.37
2023-05-20T18:21:22.051Z,2.93
2023-05-20T18:23:48.896Z,3.20
2023-05-20T18:26:15.919Z,4.00
2023-05-20T18:28:42.585Z,2.43
2023-05-20T18:31:09.185Z,2.60
2023-05-20T18:33:37.044Z,3.10
2023-05-20T18:36:03.896Z,3.17
2023-05-20T18:38:30.583Z,4.70
2023-05-20T18:40:57.096Z,3.65
2023-05-20T18:43:23.662Z,3.43
2023-05-20T18:45:50.433Z,3.00
2023-05-20T18:48:26.246Z,2.40
2023-05-20T18:50:54.829Z,3.03
2023-05-20T18:53:21.518Z,2.80
2023-05-20T18:55:48.475Z,3.00
2023-05-20T18:58:15.512Z,4.47
2023-05-20T19:00:42.478Z,2.77
2023-05-20T19:03:09.163Z,2.60
2023-05-20T19:05:35.849Z,4.40
2023-05-20T19:08:04.513Z,12.93
2023-05-20T19:10:31.641Z,6.10
2023-05-20T19:12:58.195Z,7.10
2023-05-20T19:15:24.634Z,4.17
2023-05-20T19:17:51.092Z,3.33
2023-05-20T19:20:17.610Z,3.43
2023-05-20T19:22:44.228Z,2.90
2023-05-20T19:25:11.329Z,2.70
2023-05-20T19:27:37.769Z,3.37
2023-05-20T19:30:04.575Z,2.43
2023-05-20T19:32:31.098Z,5.47
2023-05-20T19:34:57.603Z,3.67
2023-05-20T19:37:24.267Z,3.20
2023-05-20T19:39:50.928Z,5.87
2023-05-20T19:42:17.559Z,3.20
2023-05-20T19:44:46.464Z,3.00
2023-05-20T19:47:13.136Z,4.47
2023-05-20T19:49:39.689Z,3.97
2023-05-20T19:52:07.074Z,3.67
2023-05-20T19:54:33.804Z,3.60
2023-05-20T19:57:00.284Z,2.53
2023-05-20T19:59:26.942Z,5.20
2023-05-20T20:01:53.590Z,4.07
2023-05-20T20:04:20.263Z,3.97
2023-05-20T20:06:47.987Z,4.23
2023-05-20T20:09:16.356Z,3.53
2023-05-20T20:11:43.399Z,3.47
2023-05-20T20:14:10.179Z,5.13
2023-05-20T20:16:37.016Z,4.00
2023-05-20T20:19:04.701Z,3.80
2023-05-20T20:21:31.310Z,3.43
2023-05-20T20:23:57.830Z,3.70
2023-05-20T20:26:25.851Z,3.73
2023-05-20T20:28:52.518Z,3.73
2023-05-20T20:31:18.968Z,3.93
2023-05-20T20:33:45.579Z,4.43
2023-05-20T20:36:12.970Z,4.25
2023-05-20T20:38:39.439Z,4.30
2023-05-20T20:41:06.068Z,3.20
2023-05-20T20:43:34.722Z,7.07
2023-05-20T20:46:01.390Z,10.90
2023-05-20T20:48:27.829Z,3.93
2023-05-20T20:50:54.456Z,4.60
2023-05-20T20:53:21.727Z,3.97
2023-05-20T20:55:48.300Z,5.63
2023-05-20T20:58:15.638Z,5.57
2023-05-20T21:00:44.940Z,3.43
2023-05-20T21:03:12.678Z,3.00
2023-05-20T21:05:39.654Z,3.70
2023-05-20T21:08:07.997Z,4.93
2023-05-20T21:10:36.036Z,3.10
2023-05-20T21:13:02.467Z,3.43
2023-05-20T21:15:28.929Z,3.33
2023-05-20T21:17:55.456Z,3.43
2023-05-20T21:20:22.139Z,7.10
2023-05-20T21:22:48.622Z,3.70
2023-05-20T21:25:15.380Z,4.87
2023-05-20T21:27:41.846Z,4.30
2023-05-20T21:30:12.189Z,4.43
2023-05-20T21:32:38.937Z,5.67
2023-05-20T21:35:06.076Z,3.70
2023-05-20T21:37:32.640Z,4.50
2023-05-20T21:39:59.116Z,3.27
2023-05-20T21:42:25.659Z,3.20
2023-05-20T21:44:52.141Z,4.27
2023-05-20T21:47:20.564Z,4.00
2023-05-20T21:49:48.119Z,3.70
2023-05-20T21:52:15.179Z,2.83
2023-05-20T21:54:41.890Z,3.40
2023-05-20T21:57:08.331Z,3.27
2023-05-20T21:59:34.846Z,5.93
2023-05-20T22:02:01.470Z,5.37
2023-05-20T22:04:28.651Z,4.75
2023-05-20T22:06:56.229Z,3.13
2023-05-20T22:09:22.677Z,4.83
2023-05-20T22:11:49.651Z,5.10
2023-05-20T22:14:16.750Z,3.53
2023-05-20T22:16:46.800Z,3.27
2023-05-20T22:19:15.467Z,4.03
2023-05-20T22:21:50.022Z,4.43
2023-05-20T22:24:17.762Z,4.00
2023-05-20T22:26:44.334Z,3.20
2023-05-20T22:29:10.764Z,3.83
2023-05-20T22:31:37.917Z,3.30
2023-05-20T22:34:05.370Z,4.23
2023-05-20T22:36:34.132Z,4.20
2023-05-20T22:39:06.566Z,4.03
2023-05-20T22:41:33.042Z,4.33
2023-05-20T22:43:59.574Z,5.43
2023-05-20T22:46:26.216Z,7.10
2023-05-20T22:48:52.983Z,3.37
2023-05-20T22:51:24.607Z,2.90
2023-05-20T22:53:51.417Z,4.53
2023-05-20T22:56:18.507Z,5.15
2023-05-20T22:58:45.792Z,5.43
2023-05-20T23:01:13.232Z,5.00
2023-05-20T23:03:40.090Z,8.17
2023-05-20T23:06:06.609Z,4.00
2023-05-20T23:08:33.169Z,4.23
2023-05-20T23:10:59.586Z,4.43
2023-05-20T23:13:26.444Z,4.97
2023-05-20T23:15:52.900Z,3.53
2023-05-20T23:18:19.465Z,6.87
2023-05-20T23:20:46.028Z,4.20
2023-05-20T23:23:12.550Z,3.77
2023-05-20T23:25:39.512Z,5.87
2023-05-20T23:28:06.203Z,5.73
2023-05-20T23:30:32.689Z,6.23
2023-05-20T23:32:59.662Z,6.03
2023-05-20T23:35:26.311Z,5.00
2023-05-20T23:37:52.786Z,4.57
2023-05-20T23:40:19.327Z,5.57
2023-05-20T23:42:45.954Z,5.10
2023-05-20T23:45:13.122Z,4.57
2023-05-20T23:47:39.775Z,4.30
2023-05-20T23:50:07.323Z,4.17
2023-05-20T23:52:33.917Z,4.17
2023-05-20T23:55:00.532Z,4.93
2023-05-20T23:57:27.157Z,5.67
2023-05-20T23:59:53.599Z,4.73
